createdAt,value
2019-05-30T00:00:07.742Z,98.61
2019-05-30T00:02:25.338Z,98.57
2019-05-30T00:04:54.078Z,98.80
2019-05-30T00:07:22.518Z,99.16
2019-05-30T00:09:50.914Z,98.92
2019-05-30T00:12:19.325Z,98.66
2019-05-30T00:14:48.028Z,98.75
2019-05-30T00:17:16.351Z,98.68
2019-05-30T00:19:44.745Z,98.66
2019-05-30T00:22:13.130Z,98.80
2019-05-30T00:24:41.523Z,98.75
2019-05-30T00:27:09.931Z,98.73
2019-05-30T00:29:38.309Z,98.64
2019-05-30T00:32:07.838Z,98.65
2019-05-30T00:34:36.240Z,98.67
2019-05-30T00:37:05.954Z,98.82
2019-05-30T00:39:34.475Z,98.71
2019-05-30T00:42:04.104Z,98.40
2019-05-30T00:44:32.645Z,98.39
2019-05-30T00:47:02.322Z,98.44
2019-05-30T00:49:32.052Z,98.30
2019-05-30T00:52:00.613Z,97.91
2019-05-30T00:54:29.254Z,97.79
2019-05-30T00:56:58.586Z,97.97
2019-05-30T00:59:27.212Z,97.91
2019-05-30T01:01:56.619Z,98.00
2019-05-30T01:04:25.023Z,98.35
2019-05-30T01:06:53.419Z,98.03
2019-05-30T01:09:21.827Z,98.47
2019-05-30T01:11:50.283Z,98.81
2019-05-30T01:14:18.921Z,98.57
2019-05-30T01:16:47.325Z,99.02
2019-05-30T01:19:15.942Z,98.54
2019-05-30T01:21:44.776Z,98.55
2019-05-30T01:24:13.411Z,98.64
2019-05-30T01:26:42.063Z,98.53
2019-05-30T01:29:10.698Z,98.64
2019-05-30T01:31:39.103Z,98.61
2019-05-30T01:34:07.982Z,99.00
2019-05-30T01:36:36.413Z,98.77
2019-05-30T01:39:07.994Z,98.50
2019-05-30T01:41:36.608Z,98.03
2019-05-30T01:44:06.106Z,98.31
2019-05-30T01:46:34.548Z,98.73
2019-05-30T01:49:04.296Z,98.74
2019-05-30T01:51:33.013Z,98.20
2019-05-30T01:54:02.567Z,98.35
2019-05-30T01:56:30.932Z,98.69
2019-05-30T01:59:00.360Z,98.94
2019-05-30T02:01:28.998Z,98.83
2019-05-30T02:03:58.893Z,98.70
2019-05-30T02:06:27.696Z,98.66
2019-05-30T02:08:56.129Z,98.65
2019-05-30T02:11:24.759Z,98.94
2019-05-30T02:13:53.391Z,99.00
2019-05-30T02:16:22.056Z,99.27
2019-05-30T02:18:50.410Z,99.35
2019-05-30T02:21:18.790Z,99.13
2019-05-30T02:23:47.455Z,99.27
2019-05-30T02:26:16.102Z,99.39
2019-05-30T02:28:44.495Z,99.24
2019-05-30T02:31:13.195Z,99.26
2019-05-30T02:33:41.606Z,99.21
2019-05-30T02:36:12.332Z,99.12
2019-05-30T02:38:40.359Z,98.87
2019-05-30T02:41:10.024Z,98.90
2019-05-30T02:43:39.106Z,99.27
2019-05-30T02:46:08.446Z,99.45
2019-05-30T02:48:57.289Z,99.28
2019-05-30T02:51:10.095Z,99.17
2019-05-30T02:53:38.073Z,99.09
2019-05-30T02:56:07.918Z,98.96
2019-05-30T02:58:36.725Z,99.09
2019-05-30T03:01:07.061Z,99.36
2019-05-30T03:03:35.302Z,99.49
2019-05-30T03:06:06.271Z,99.46
2019-05-30T03:08:34.472Z,99.64
2019-05-30T03:11:04.466Z,99.39
2019-05-30T03:13:33.111Z,99.02
2019-05-30T03:16:02.155Z,99.02
2019-05-30T03:18:31.309Z,99.12
2019-05-30T03:20:59.939Z,99.22
2019-05-30T03:23:28.336Z,99.22
2019-05-30T03:25:56.792Z,99.39
2019-05-30T03:28:25.455Z,99.26
2019-05-30T03:30:54.424Z,99.12
2019-05-30T03:33:38.054Z,99.16
2019-05-30T03:35:53.253Z,99.19
2019-05-30T03:38:21.592Z,99.48
2019-05-30T03:40:50.458Z,99.55
2019-05-30T03:43:18.913Z,99.90
2019-05-30T03:45:47.833Z,99.89
2019-05-30T03:48:18.310Z,99.88
2019-05-30T03:50:49.965Z,99.84
2019-05-30T03:53:18.951Z,99.81
2019-05-30T03:55:50.384Z,99.76
2019-05-30T03:58:22.073Z,99.85
2019-05-30T04:00:53.513Z,99.96
2019-05-30T04:03:30.507Z,100.00
2019-05-30T04:06:01.944Z,100.00
2019-05-30T04:08:33.459Z,100.00
2019-05-30T04:11:04.887Z,100.00
2019-05-30T04:13:39.232Z,100.00
2019-05-30T04:16:08.666Z,100.00
2019-05-30T04:18:37.168Z,100.00
2019-05-30T04:21:05.627Z,100.00
2019-05-30T04:23:34.043Z,100.00
2019-05-30T04:26:02.696Z,100.00
2019-05-30T04:28:31.064Z,100.00
2019-05-30T04:30:59.469Z,100.00
2019-05-30T04:33:33.174Z,100.00
2019-05-30T04:35:57.984Z,100.00
2019-05-30T04:38:26.386Z,100.00
2019-05-30T04:40:55.316Z,99.85
2019-05-30T04:43:23.963Z,99.86
2019-05-30T04:45:52.367Z,99.98
2019-05-30T04:48:21.413Z,99.85
2019-05-30T04:50:50.224Z,99.96
2019-05-30T04:53:20.719Z,99.95
2019-05-30T04:55:48.980Z,99.82
2019-05-30T04:58:18.696Z,99.85
2019-05-30T05:00:47.551Z,99.99
2019-05-30T05:03:19.081Z,100.00
2019-05-30T05:05:46.305Z,100.00
2019-05-30T05:08:15.832Z,100.00
2019-05-30T05:10:44.814Z,100.00
2019-05-30T05:13:14.123Z,100.00
2019-05-30T05:15:42.535Z,100.00
2019-05-30T05:18:12.809Z,99.92
2019-05-30T05:20:41.583Z,99.78
2019-05-30T05:23:09.972Z,99.23
2019-05-30T05:25:38.367Z,99.31
2019-05-30T05:28:06.742Z,99.24
2019-05-30T05:30:35.140Z,99.08
2019-05-30T05:33:03.536Z,98.29
2019-05-30T05:35:32.185Z,98.77
2019-05-30T05:38:00.820Z,98.51
2019-05-30T05:40:29.448Z,98.49
2019-05-30T05:42:57.867Z,97.72
2019-05-30T05:45:26.255Z,97.93
2019-05-30T05:47:54.650Z,96.99
2019-05-30T05:50:23.047Z,97.50
2019-05-30T05:52:51.437Z,97.35
2019-05-30T05:55:20.895Z,96.72
2019-05-30T05:57:49.237Z,96.63
2019-05-30T06:00:19.166Z,95.86
2019-05-30T06:02:47.799Z,96.03
2019-05-30T06:05:16.252Z,96.08
2019-05-30T06:07:44.642Z,96.56
2019-05-30T06:10:13.255Z,96.29
2019-05-30T06:12:41.656Z,96.08
2019-05-30T06:15:10.346Z,96.32
2019-05-30T06:17:38.743Z,96.67
2019-05-30T06:20:07.656Z,96.42
2019-05-30T06:22:36.172Z,96.23
2019-05-30T06:25:06.097Z,96.37
2019-05-30T06:27:34.730Z,96.83
2019-05-30T06:30:04.456Z,96.08
2019-05-30T06:32:33.093Z,95.23
2019-05-30T06:35:01.479Z,95.65
2019-05-30T06:37:29.885Z,95.80
2019-05-30T06:39:58.269Z,96.00
2019-05-30T06:42:28.153Z,95.64
2019-05-30T06:44:56.617Z,95.02
2019-05-30T06:47:26.259Z,95.58
2019-05-30T06:49:54.691Z,95.36
2019-05-30T06:52:23.162Z,94.06
2019-05-30T06:54:51.578Z,94.67
2019-05-30T06:57:21.109Z,95.05
2019-05-30T06:59:49.545Z,94.69
2019-05-30T07:02:18.205Z,94.66
2019-05-30T07:04:51.597Z,93.40
2019-05-30T07:07:16.852Z,93.91
2019-05-30T07:09:45.349Z,92.26
2019-05-30T07:12:13.992Z,92.99
2019-05-30T07:14:42.383Z,92.67
2019-05-30T07:17:11.335Z,91.25
2019-05-30T07:19:39.973Z,90.29
2019-05-30T07:22:08.377Z,89.01
2019-05-30T07:24:36.764Z,89.98
2019-05-30T07:27:05.169Z,88.76
2019-05-30T07:29:34.268Z,87.46
2019-05-30T07:32:02.625Z,88.81
2019-05-30T07:34:32.143Z,89.05
2019-05-30T07:37:00.803Z,90.19
2019-05-30T07:39:31.653Z,88.72
2019-05-30T07:42:06.195Z,86.66
2019-05-30T07:44:30.788Z,87.05
2019-05-30T07:46:59.255Z,86.12
2019-05-30T07:49:28.255Z,85.66
2019-05-30T07:51:56.662Z,84.17
2019-05-30T07:54:25.336Z,84.63
2019-05-30T07:56:54.087Z,85.00
2019-05-30T07:59:22.529Z,84.66
2019-05-30T08:01:51.197Z,83.33
2019-05-30T08:04:20.089Z,83.26
2019-05-30T08:06:48.513Z,79.81
2019-05-30T08:09:16.899Z,78.59
2019-05-30T08:11:45.309Z,80.59
2019-05-30T08:14:13.703Z,78.80
2019-05-30T08:16:42.360Z,79.06
2019-05-30T08:19:11.063Z,78.26
2019-05-30T08:21:39.453Z,79.00
2019-05-30T08:24:07.851Z,77.25
2019-05-30T08:26:36.453Z,75.91
2019-05-30T08:29:04.901Z,76.63
2019-05-30T08:31:34.515Z,77.33
2019-05-30T08:34:02.960Z,71.62
2019-05-30T08:36:31.344Z,78.08
2019-05-30T08:38:59.734Z,74.18
2019-05-30T08:41:29.121Z,74.00
2019-05-30T08:43:57.495Z,73.87
2019-05-30T08:46:25.887Z,74.59
2019-05-30T08:48:54.290Z,76.29
2019-05-30T08:51:22.675Z,74.76
2019-05-30T08:53:51.319Z,73.54
2019-05-30T08:56:19.705Z,72.88
2019-05-30T08:58:48.340Z,68.57
2019-05-30T09:01:16.959Z,73.14
2019-05-30T09:03:46.260Z,72.95
2019-05-30T09:06:14.910Z,68.11
2019-05-30T09:08:44.261Z,70.83
2019-05-30T09:11:12.883Z,71.98
2019-05-30T09:13:42.518Z,71.62
2019-05-30T09:16:11.045Z,71.81
2019-05-30T09:18:40.284Z,71.46
2019-05-30T09:21:09.569Z,72.54
2019-05-30T09:23:39.095Z,70.36
2019-05-30T09:26:08.062Z,68.23
2019-05-30T09:28:36.458Z,68.18
2019-05-30T09:31:05.089Z,64.75
2019-05-30T09:33:33.486Z,65.45
2019-05-30T09:36:12.554Z,69.33
2019-05-30T09:38:32.273Z,69.76
2019-05-30T09:41:00.909Z,67.36
2019-05-30T09:43:29.299Z,66.11
2019-05-30T09:45:57.861Z,63.80
2019-05-30T09:48:26.248Z,65.07
2019-05-30T09:50:54.647Z,59.33
2019-05-30T09:53:23.309Z,60.28
2019-05-30T09:55:53.050Z,58.02
2019-05-30T09:58:21.420Z,56.93
2019-05-30T10:00:50.437Z,58.35
2019-05-30T10:03:19.072Z,51.66
2019-05-30T10:05:48.636Z,58.00
2019-05-30T10:08:17.362Z,55.30
2019-05-30T10:10:47.660Z,55.99
2019-05-30T10:13:15.855Z,52.50
2019-05-30T10:15:45.436Z,53.31
2019-05-30T10:18:14.356Z,49.22
2019-05-30T10:20:42.994Z,50.69
2019-05-30T10:23:11.625Z,50.74
2019-05-30T10:25:40.024Z,49.76
2019-05-30T10:28:08.473Z,53.11
2019-05-30T10:30:36.865Z,45.87
2019-05-30T10:33:05.322Z,53.13
2019-05-30T10:35:33.757Z,50.76
2019-05-30T10:38:02.387Z,52.02
2019-05-30T10:40:32.242Z,48.36
2019-05-30T10:43:00.644Z,53.95
2019-05-30T10:45:29.402Z,49.04
2019-05-30T10:47:57.791Z,48.80
2019-05-30T10:50:26.311Z,51.93
2019-05-30T10:52:55.642Z,52.94
2019-05-30T11:07:16.219Z,42.21
2019-05-30T11:09:48.701Z,47.84
2019-05-30T11:12:17.350Z,44.82
2019-05-30T11:14:46.816Z,48.00
2019-05-30T11:17:15.919Z,48.01
2019-05-30T11:19:44.315Z,46.05
2019-05-30T11:22:12.741Z,42.96
2019-05-30T11:24:41.115Z,45.33
2019-05-30T11:27:09.510Z,43.98
2019-05-30T11:29:37.891Z,45.62
2019-05-30T11:32:06.288Z,45.24
2019-05-30T11:34:34.675Z,43.24
2019-05-30T11:37:18.308Z,43.95
2019-05-30T11:39:33.438Z,44.52
2019-05-30T11:42:01.831Z,42.96
2019-05-30T11:44:30.202Z,46.38
2019-05-30T11:46:59.827Z,45.23
2019-05-30T11:49:28.390Z,43.53
2019-05-30T11:51:57.898Z,45.21
2019-05-30T11:54:26.264Z,46.52
2019-05-30T11:56:54.640Z,52.22
2019-05-30T11:59:23.027Z,49.37
2019-05-30T12:01:52.902Z,48.68
2019-05-30T12:04:21.945Z,54.29
2019-05-30T12:06:51.046Z,46.16
2019-05-30T12:09:20.155Z,51.62
2019-05-30T12:11:48.533Z,48.96
2019-05-30T12:14:16.921Z,50.24
2019-05-30T12:16:45.586Z,51.93
2019-05-30T12:19:13.985Z,49.80
2019-05-30T12:21:42.361Z,46.53
2019-05-30T12:24:10.747Z,47.17
2019-05-30T12:26:39.380Z,51.31
2019-05-30T12:29:07.781Z,50.46
2019-05-30T12:31:36.179Z,46.55
2019-05-30T12:34:04.817Z,45.70
2019-05-30T12:36:33.218Z,47.89
2019-05-30T12:39:02.658Z,49.09
2019-05-30T12:41:31.179Z,49.08
2019-05-30T12:43:59.561Z,47.69
2019-05-30T12:46:27.960Z,49.06
2019-05-30T12:48:57.325Z,49.46
2019-05-30T12:51:25.964Z,49.77
2019-05-30T12:53:54.396Z,51.07
2019-05-30T12:56:22.988Z,50.84
2019-05-30T12:58:51.416Z,52.81
2019-05-30T13:01:19.809Z,51.71
2019-05-30T13:03:48.195Z,52.37
2019-05-30T13:06:16.590Z,53.79
2019-05-30T13:08:44.972Z,50.60
2019-05-30T13:11:13.371Z,50.81
2019-05-30T13:13:42.004Z,52.05
2019-05-30T13:16:10.648Z,52.56
2019-05-30T13:18:39.042Z,50.95
2019-05-30T13:21:07.421Z,49.61
2019-05-30T13:23:35.917Z,49.18
2019-05-30T13:26:05.806Z,47.71
2019-05-30T13:28:34.359Z,46.10
2019-05-30T13:31:02.705Z,46.96
2019-05-30T13:33:31.152Z,46.65
2019-05-30T13:36:00.916Z,46.23
2019-05-30T13:38:29.652Z,47.49
2019-05-30T13:40:59.297Z,46.40
2019-05-30T13:43:28.193Z,47.46
2019-05-30T13:45:56.537Z,47.32
2019-05-30T13:48:25.175Z,46.81
2019-05-30T13:50:53.808Z,49.20
2019-05-30T13:53:22.448Z,49.54
2019-05-30T13:55:51.081Z,49.18
2019-05-30T13:58:19.500Z,50.69
2019-05-30T14:00:47.866Z,49.93
2019-05-30T14:03:16.263Z,51.57
2019-05-30T14:05:44.641Z,51.20
2019-05-30T14:08:16.379Z,51.61
2019-05-30T14:10:43.151Z,50.64
2019-05-30T14:13:11.539Z,47.68
2019-05-30T14:15:39.922Z,48.37
2019-05-30T14:18:09.082Z,46.10
2019-05-30T14:20:37.479Z,42.94
2019-05-30T14:23:07.291Z,45.36
2019-05-30T14:25:35.923Z,43.51
2019-05-30T14:28:05.581Z,43.55
2019-05-30T14:30:34.050Z,44.01
2019-05-30T14:33:02.445Z,42.47
2019-05-30T14:35:30.820Z,45.88
2019-05-30T14:37:59.207Z,45.62
2019-05-30T14:40:27.973Z,47.62
2019-05-30T14:42:56.359Z,48.25
2019-05-30T14:45:27.785Z,45.99
2019-05-30T14:47:55.332Z,46.31
2019-05-30T14:50:24.205Z,46.22
2019-05-30T14:52:52.606Z,45.53
2019-05-30T14:55:21.223Z,46.76
2019-05-30T14:57:49.861Z,47.04
2019-05-30T15:00:18.732Z,47.66
2019-05-30T15:02:47.861Z,47.38
2019-05-30T15:05:16.494Z,47.91
2019-05-30T15:07:44.869Z,46.78
2019-05-30T15:10:13.784Z,49.42
2019-05-30T15:12:42.309Z,49.68
2019-05-30T15:15:14.480Z,44.31
2019-05-30T15:17:41.468Z,45.32
2019-05-30T15:20:13.683Z,47.93
2019-05-30T15:22:42.226Z,45.24
2019-05-30T15:25:12.069Z,46.05
2019-05-30T15:27:41.296Z,47.60
2019-05-30T15:30:12.692Z,48.35
2019-05-30T15:32:41.378Z,50.77
2019-05-30T15:35:10.987Z,50.65
2019-05-30T15:37:40.903Z,48.50
2019-05-30T15:40:10.968Z,48.59
2019-05-30T15:42:39.376Z,46.50
2019-05-30T15:45:10.082Z,48.50
2019-05-30T15:47:38.750Z,47.78
2019-05-30T15:50:08.326Z,47.21
2019-05-30T15:52:37.019Z,47.70
2019-05-30T15:55:07.242Z,50.04
2019-05-30T15:57:35.627Z,47.52
2019-05-30T16:00:07.459Z,47.11
2019-05-30T16:02:35.841Z,47.81
2019-05-30T16:05:06.279Z,48.68
2019-05-30T16:07:34.662Z,48.52
2019-05-30T16:10:04.859Z,45.12
2019-05-30T16:12:33.489Z,43.87
2019-05-30T16:15:02.116Z,43.71
2019-05-30T16:17:30.752Z,43.30
2019-05-30T16:19:59.148Z,42.78
2019-05-30T16:22:27.784Z,43.54
2019-05-30T16:24:56.178Z,39.37
2019-05-30T16:27:24.557Z,39.94
2019-05-30T16:29:52.942Z,41.31
2019-05-30T16:32:22.199Z,44.29
2019-05-30T16:34:50.560Z,44.86
2019-05-30T16:37:20.094Z,46.12
2019-05-30T16:40:04.378Z,43.72
2019-05-30T16:42:18.845Z,41.41
2019-05-30T16:44:47.241Z,41.26
2019-05-30T16:47:16.551Z,41.87
2019-05-30T16:49:45.013Z,44.33
2019-05-30T16:52:14.700Z,43.93
2019-05-30T16:54:43.346Z,44.81
2019-05-30T16:57:11.734Z,44.29
2019-05-30T16:59:40.356Z,47.94
2019-05-30T17:02:08.985Z,46.85
2019-05-30T17:04:37.423Z,45.42
2019-05-30T17:07:05.847Z,47.00
2019-05-30T17:09:34.478Z,46.72
2019-05-30T17:12:02.886Z,45.99
2019-05-30T17:14:31.285Z,46.55
2019-05-30T17:17:02.709Z,46.33
2019-05-30T17:19:29.957Z,46.76
2019-05-30T17:21:58.350Z,45.13
2019-05-30T17:24:27.288Z,44.50
2019-05-30T17:26:55.797Z,46.35
2019-05-30T17:29:24.187Z,45.23
2019-05-30T17:31:52.575Z,44.40
2019-05-30T17:34:21.822Z,45.88
2019-05-30T17:36:50.238Z,48.00
2019-05-30T17:39:18.956Z,46.96
2019-05-30T17:41:47.317Z,46.81
2019-05-30T17:44:15.927Z,50.11
2019-05-30T17:46:44.328Z,50.79
2019-05-30T17:49:12.820Z,50.62
2019-05-30T17:51:41.198Z,51.27
2019-05-30T17:54:09.572Z,52.07
2019-05-30T17:56:37.931Z,51.47
2019-05-30T17:59:06.335Z,52.80
2019-05-30T18:01:34.726Z,53.89
2019-05-30T18:04:03.119Z,56.65
2019-05-30T18:06:31.507Z,58.61
2019-05-30T18:08:59.928Z,59.25
2019-05-30T18:11:29.015Z,61.51
2019-05-30T18:13:57.449Z,62.52
2019-05-30T18:16:27.087Z,60.88
2019-05-30T18:18:55.515Z,59.99
2019-05-30T18:21:23.915Z,60.53
2019-05-30T18:23:52.299Z,61.43
2019-05-30T18:26:21.457Z,62.13
2019-05-30T18:28:49.876Z,62.56
2019-05-30T18:31:18.268Z,63.73
2019-05-30T18:33:46.652Z,65.93
2019-05-30T18:36:15.035Z,66.22
2019-05-30T18:38:43.438Z,66.20
2019-05-30T18:41:15.843Z,67.45
2019-05-30T18:43:41.944Z,67.60
2019-05-30T18:46:10.348Z,69.17
2019-05-30T18:48:38.894Z,70.72
2019-05-30T18:51:07.346Z,70.99
2019-05-30T18:53:36.707Z,71.24
2019-05-30T18:56:06.530Z,72.43
2019-05-30T18:58:34.871Z,72.33
2019-05-30T19:01:03.493Z,71.24
2019-05-30T19:03:33.336Z,70.65
2019-05-30T19:06:01.805Z,71.13
2019-05-30T19:08:30.215Z,72.17
2019-05-30T19:10:58.634Z,71.46
2019-05-30T19:13:27.038Z,73.47
2019-05-30T19:15:55.581Z,73.88
2019-05-30T19:18:25.268Z,74.96
2019-05-30T19:20:53.791Z,73.62
2019-05-30T19:23:22.202Z,73.80
2019-05-30T19:25:50.809Z,73.98
2019-05-30T19:28:19.210Z,74.56
2019-05-30T19:30:47.899Z,74.14
2019-05-30T19:33:20.371Z,74.73
2019-05-30T19:35:49.445Z,74.52
2019-05-30T19:38:16.577Z,75.57
2019-05-30T19:40:45.196Z,76.87
2019-05-30T19:43:13.702Z,76.51
2019-05-30T19:45:42.101Z,77.85
2019-05-30T19:48:10.526Z,78.54
2019-05-30T19:50:38.972Z,78.59
2019-05-30T19:53:07.360Z,78.77
2019-05-30T19:55:35.782Z,79.65
2019-05-30T19:58:04.560Z,79.90
2019-05-30T20:00:35.360Z,80.34
2019-05-30T20:03:03.181Z,80.47
2019-05-30T20:05:32.565Z,81.18
2019-05-30T20:08:00.970Z,81.10
2019-05-30T20:10:30.673Z,80.65
2019-05-30T20:12:59.243Z,81.82
2019-05-30T20:15:29.315Z,82.22
2019-05-30T20:18:00.451Z,82.13
2019-05-30T20:20:28.836Z,82.11
2019-05-30T20:22:57.318Z,82.40
2019-05-30T20:25:25.891Z,83.22
2019-05-30T20:27:54.339Z,83.06
2019-05-30T20:30:24.239Z,83.08
2019-05-30T20:32:52.681Z,82.94
2019-05-30T20:35:21.164Z,83.61
2019-05-30T20:37:49.583Z,83.87
2019-05-30T20:40:18.834Z,84.37
2019-05-30T20:42:47.522Z,85.23
2019-05-30T20:45:16.224Z,84.37
2019-05-30T20:47:44.640Z,85.27
2019-05-30T20:50:15.054Z,85.23
2019-05-30T20:52:45.618Z,84.84
2019-05-30T20:55:14.698Z,84.25
2019-05-30T20:57:43.127Z,84.22
2019-05-30T21:00:13.069Z,84.32
2019-05-30T21:02:43.514Z,83.59
2019-05-30T21:05:12.155Z,83.72
2019-05-30T21:07:44.325Z,83.13
2019-05-30T21:10:14.721Z,83.73
2019-05-30T21:12:46.880Z,83.92
2019-05-30T21:15:14.954Z,83.77
2019-05-30T21:17:46.164Z,83.44
2019-05-30T21:20:15.147Z,83.56
2019-05-30T21:22:44.646Z,84.14
2019-05-30T21:25:13.440Z,84.31
2019-05-30T21:27:43.037Z,84.42
2019-05-30T21:30:11.902Z,84.39
2019-05-30T21:32:41.701Z,82.77
2019-05-30T21:35:10.953Z,83.07
2019-05-30T21:37:39.721Z,82.98
2019-05-30T21:40:08.416Z,83.07
2019-05-30T21:42:51.509Z,82.73
2019-05-30T21:45:08.185Z,81.75
2019-05-30T21:47:36.605Z,81.13
2019-05-30T21:50:08.224Z,81.54
2019-05-30T21:52:36.725Z,81.68
2019-05-30T21:55:08.616Z,82.11
2019-05-30T21:57:37.086Z,82.46
2019-05-30T22:00:14.199Z,82.46
2019-05-30T22:02:46.636Z,82.72
2019-05-30T22:05:15.231Z,83.79
2019-05-30T22:07:44.974Z,84.02
2019-05-30T22:10:13.585Z,83.12
2019-05-30T22:12:42.053Z,83.14
2019-05-30T22:15:10.586Z,83.25
2019-05-30T22:17:38.995Z,82.90
2019-05-30T22:20:07.784Z,82.81
2019-05-30T22:22:36.204Z,83.12
2019-05-30T22:25:06.035Z,83.92
2019-05-30T22:27:34.471Z,83.96
2019-05-30T22:30:02.965Z,83.88
2019-05-30T22:32:31.380Z,82.69
2019-05-30T22:34:59.839Z,82.69
2019-05-30T22:37:28.231Z,82.24
2019-05-30T22:39:56.659Z,81.69
2019-05-30T22:42:25.051Z,81.13
2019-05-30T22:44:53.453Z,81.06
2019-05-30T22:47:21.887Z,80.64
2019-05-30T22:49:50.770Z,80.10
2019-05-30T22:52:19.203Z,80.17
2019-05-30T22:54:47.638Z,80.49
2019-05-30T22:57:16.004Z,81.51
2019-05-30T22:59:44.741Z,82.07
2019-05-30T23:02:13.113Z,82.00
2019-05-30T23:04:41.558Z,81.41
2019-05-30T23:07:09.961Z,81.41
2019-05-30T23:09:38.369Z,81.26
2019-05-30T23:12:06.860Z,80.81
2019-05-30T23:14:35.261Z,80.79
2019-05-30T23:17:03.678Z,80.58
2019-05-30T23:19:32.111Z,80.67
2019-05-30T23:22:00.523Z,80.71
2019-05-30T23:24:28.954Z,81.34
2019-05-30T23:26:57.940Z,81.83
2019-05-30T23:29:26.384Z,81.60
2019-05-30T23:31:56.082Z,81.26
2019-05-30T23:34:24.616Z,79.80
2019-05-30T23:36:53.017Z,79.84
2019-05-30T23:39:21.430Z,80.15
2019-05-30T23:41:51.034Z,82.14
2019-05-30T23:44:19.635Z,82.61
2019-05-30T23:46:49.262Z,83.67
2019-05-30T23:49:17.702Z,83.89
2019-05-30T23:51:46.127Z,83.75
2019-05-30T23:54:14.551Z,84.11
2019-05-30T23:56:42.939Z,84.72
2019-05-30T23:59:11.371Z,86.31
